Time;durP1;ratioP1;P1;durP2;ratioP2;P2;SDS_P1;SDS_P2;PMS_P1;PMS_P2;Temp;Humidity;BMP_temperature;BMP_pressure;BME280_temperature;BME280_humidity;BME280_pressure;Samples;Min_cycle;Max_cycle;Signal;HPM_P1;HPM_P2
2023/12/15 00:00:44;;;;;;;1.05;0.70;;;;;;;6.94;100.00;99158.75;5093515;28;20032;-71
2023/12/15 00:03:10;;;;;;;0.68;0.68;;;;;;;6.94;100.00;99164.31;5089425;28;20034;-71
2023/12/15 00:05:35;;;;;;;1.10;0.90;;;;;;;6.93;100.00;99169.03;5093509;28;20035;-71
2023/12/15 00:08:01;;;;;;;0.75;0.70;;;;;;;6.95;100.00;99163.19;5107040;28;20031;-71
2023/12/15 00:10:26;;;;;;;0.75;0.75;;;;;;;6.96;100.00;99167.59;5095535;28;20031;-71
2023/12/15 00:12:52;;;;;;;1.63;0.88;;;;;;;6.90;100.00;99171.66;5090158;28;20035;-71
2023/12/15 00:15:17;;;;;;;6.13;0.88;;;;;;;6.97;100.00;99181.19;5113474;28;20127;-71
2023/12/15 00:17:42;;;;;;;0.70;0.70;;;;;;;6.95;100.00;99172.34;5082490;28;20035;-71
2023/12/15 00:20:08;;;;;;;1.20;0.95;;;;;;;6.98;100.00;99193.97;5093242;28;20100;-71
2023/12/15 00:22:34;;;;;;;1.20;0.73;;;;;;;6.92;100.00;99191.63;5073949;28;20385;-71
2023/12/15 00:24:59;;;;;;;0.82;0.73;;;;;;;6.87;100.00;99189.78;5093101;28;20032;-71
2023/12/15 00:27:25;;;;;;;0.93;0.77;;;;;;;6.89;100.00;99212.53;5080488;28;20031;-71
2023/12/15 00:29:50;;;;;;;1.38;0.95;;;;;;;6.92;100.00;99206.34;5091779;28;20032;-71
2023/12/15 00:32:15;;;;;;;1.02;0.70;;;;;;;6.90;100.00;99214.19;5099377;28;20024;-71
2023/12/15 00:34:41;;;;;;;0.60;0.60;;;;;;;6.91;100.00;99203.88;5095029;28;20097;-71
2023/12/15 00:37:06;;;;;;;0.63;0.63;;;;;;;6.91;100.00;99206.66;5112589;28;20023;-71
2023/12/15 00:39:38;;;;;;;0.70;0.70;;;;;;;6.95;100.00;99213.22;5113292;28;20106;-80
2023/12/15 00:42:05;;;;;;;2.03;0.68;;;;;;;6.86;100.00;99213.97;5091103;28;20082;-80
2023/12/15 00:44:32;;;;;;;0.95;0.80;;;;;;;6.85;100.00;99212.34;5094411;28;20118;-79
2023/12/15 00:46:58;;;;;;;0.75;0.75;;;;;;;6.86;100.00;99213.97;5088061;28;20035;-81
2023/12/15 00:49:24;;;;;;;0.60;0.60;;;;;;;6.86;100.00;99219.53;5100286;28;20404;-81
2023/12/15 00:51:49;;;;;;;1.50;1.15;;;;;;;6.92;100.00;99208.31;5100493;28;20044;-81
2023/12/15 00:54:15;;;;;;;1.75;0.80;;;;;;;6.92;100.00;99211.91;5085208;28;20063;-81
2023/12/15 00:56:40;;;;;;;1.92;1.23;;;;;;;6.82;100.00;99207.41;5092002;28;20519;-81
2023/12/15 00:59:06;;;;;;;1.02;0.90;;;;;;;6.83;100.00;99220.19;5093721;28;20027;-80
2023/12/15 01:01:32;;;;;;;0.60;0.60;;;;;;;6.81;100.00;99227.19;5109672;28;20419;-80
2023/12/15 01:03:57;;;;;;;1.30;0.77;;;;;;;6.79;100.00;99226.69;5092211;28;20097;-81
2023/12/15 01:06:23;;;;;;;0.70;0.70;;;;;;;6.71;100.00;99239.38;5092169;28;20024;-80
2023/12/15 01:08:49;;;;;;;0.90;0.85;;;;;;;6.60;100.00;99236.84;5094372;28;20034;-81
2023/12/15 01:11:14;;;;;;;1.38;0.75;;;;;;;6.63;100.00;99245.69;5094255;28;20045;-80
2023/12/15 01:13:39;;;;;;;0.88;0.80;;;;;;;6.54;100.00;99240.91;5100448;28;20116;-81
2023/12/15 01:16:06;;;;;;;2.40;0.70;;;;;;;6.54;100.00;99245.63;5112570;28;20092;-81
2023/12/15 01:18:31;;;;;;;1.92;0.80;;;;;;;6.46;100.00;99244.41;5074149;28;20020;-81
2023/12/15 01:20:57;;;;;;;1.02;0.73;;;;;;;6.44;100.00;99243.91;5102960;28;20031;-81
2023/12/15 01:23:22;;;;;;;0.75;0.75;;;;;;;6.48;100.00;99252.44;5093513;28;20374;-81
2023/12/15 01:25:48;;;;;;;0.82;0.75;;;;;;;6.49;100.00;99260.44;5093470;28;20047;-79
2023/12/15 01:28:13;;;;;;;1.67;0.82;;;;;;;6.48;100.00;99264.38;5095291;28;20555;-81
2023/12/15 01:30:38;;;;;;;2.05;0.82;;;;;;;6.38;100.00;99257.09;5073865;28;20052;-81
2023/12/15 01:33:04;;;;;;;1.55;0.65;;;;;;;6.44;100.00;99258.59;5091488;28;20105;-82
2023/12/15 01:35:29;;;;;;;1.02;0.90;;;;;;;6.44;100.00;99257.78;5091862;28;20024;-81
2023/12/15 01:37:55;;;;;;;2.78;0.90;;;;;;;6.43;100.00;99256.16;5091351;28;20036;-80
2023/12/15 01:40:20;;;;;;;1.08;0.80;;;;;;;6.38;100.00;99286.81;5073497;28;20028;-81
2023/12/15 01:42:47;;;;;;;0.95;0.85;;;;;;;6.43;100.00;99287.53;5095666;28;20032;-81
2023/12/15 01:45:12;;;;;;;2.10;1.30;;;;;;;6.39;100.00;99280.97;5100329;28;20404;-81
2023/12/15 01:47:38;;;;;;;2.95;1.75;;;;;;;6.45;100.00;99287.22;5073025;28;20055;-81
2023/12/15 01:50:06;;;;;;;2.58;1.48;;;;;;;6.45;100.00;99284.44;5076998;28;20110;-80
2023/12/15 01:52:32;;;;;;;1.98;1.20;;;;;;;6.37;100.00;99282.41;5107199;28;20027;-77
2023/12/15 01:54:57;;;;;;;4.82;1.98;;;;;;;6.40;100.00;99290.94;5091505;28;20024;-79
2023/12/15 01:57:23;;;;;;;1.83;1.42;;;;;;;6.43;100.00;99295.06;5090736;28;20028;-80
2023/12/15 01:59:49;;;;;;;2.15;1.17;;;;;;;6.40;100.00;99290.13;5073243;28;20040;-79
2023/12/15 02:02:18;;;;;;;1.55;0.90;;;;;;;6.41;100.00;99286.22;5072350;28;20510;-79
2023/12/15 02:04:44;;;;;;;1.15;0.80;;;;;;;6.36;100.00;99284.38;5073062;28;20036;-80
2023/12/15 02:07:10;;;;;;;1.30;1.20;;;;;;;6.41;100.00;99300.09;5090674;28;20032;-81
2023/12/15 02:09:35;;;;;;;3.00;1.15;;;;;;;6.38;100.00;99306.25;5105080;28;20050;-80
2023/12/15 02:12:01;;;;;;;1.73;1.10;;;;;;;6.37;100.00;99299.06;5109336;28;20407;-80
2023/12/15 02:14:26;;;;;;;3.85;1.15;;;;;;;6.29;100.00;99312.56;5074252;28;20060;-80
2023/12/15 02:16:52;;;;;;;1.00;0.70;;;;;;;6.27;100.00;99314.00;5090807;28;20110;-80
2023/12/15 02:19:17;;;;;;;1.00;0.90;;;;;;;6.27;100.00;99319.56;5091099;28;20023;-81
2023/12/15 02:21:43;;;;;;;1.60;1.10;;;;;;;6.29;100.00;99326.47;5081554;28;20561;-80
2023/12/15 02:24:08;;;;;;;2.38;1.08;;;;;;;6.27;100.00;99322.34;5090977;28;20039;-80
2023/12/15 02:26:34;;;;;;;0.63;0.63;;;;;;;6.25;100.00;99319.84;5094889;28;20042;-80
2023/12/15 02:28:59;;;;;;;2.28;0.73;;;;;;;6.26;100.00;99340.13;5097829;28;20024;-80
2023/12/15 02:31:25;;;;;;;1.90;0.95;;;;;;;6.25;100.00;99350.41;5080081;28;20080;-80
2023/12/15 02:33:53;;;;;;;0.82;0.77;;;;;;;6.34;100.00;99352.47;5118147;28;20031;-80
2023/12/15 02:36:22;;;;;;;1.08;0.80;;;;;;;6.23;100.00;99344.34;5099541;28;20452;-77
2023/12/15 02:38:48;;;;;;;1.65;1.25;;;;;;;6.26;100.00;99354.84;5097714;28;20078;-80
2023/12/15 02:41:14;;;;;;;0.82;0.70;;;;;;;6.24;100.00;99361.84;5097583;28;20063;-81
2023/12/15 02:43:40;;;;;;;1.95;0.88;;;;;;;6.18;100.00;99353.59;5098796;28;20024;-81
2023/12/15 02:46:06;;;;;;;3.00;1.10;;;;;;;6.23;100.00;99362.97;5096460;28;20415;-81
2023/12/15 02:48:32;;;;;;;2.95;1.20;;;;;;;6.29;100.00;99367.28;5116177;28;20027;-81
2023/12/15 02:50:58;;;;;;;2.45;1.10;;;;;;;6.29;100.00;99361.72;5083046;28;20024;-80
2023/12/15 02:53:24;;;;;;;1.73;1.35;;;;;;;6.18;100.00;99358.34;5114707;28;20039;-81
2023/12/15 02:55:50;;;;;;;1.73;1.00;;;;;;;6.28;100.00;99365.66;5099582;28;20027;-81
2023/12/15 02:58:19;;;;;;;1.35;0.90;;;;;;;6.35;100.00;99387.47;5116098;28;20118;-81
2023/12/15 03:00:44;;;;;;;1.45;0.80;;;;;;;6.31;100.00;99373.34;5099106;28;20028;-74
2023/12/15 03:03:10;;;;;;;0.90;0.80;;;;;;;6.42;100.00;99376.75;5112513;28;20024;-73
2023/12/15 03:05:35;;;;;;;4.53;1.70;;;;;;;6.39;100.00;99374.59;5117812;28;20043;-73
2023/12/15 03:08:01;;;;;;;2.03;1.20;;;;;;;6.52;100.00;99378.50;5102080;28;20088;-73
2023/12/15 03:10:26;;;;;;;1.73;0.93;;;;;;;6.52;100.00;99387.66;5097310;28;20127;-73
2023/12/15 03:12:52;;;;;;;2.65;1.50;;;;;;;6.62;100.00;99394.13;5112703;28;20336;-73
2023/12/15 03:15:17;;;;;;;1.02;0.93;;;;;;;6.55;100.00;99384.25;5117616;28;20517;-72
2023/12/15 03:17:43;;;;;;;0.80;0.80;;;;;;;6.72;100.00;99396.69;5104611;28;20023;-73
2023/12/15 03:20:09;;;;;;;0.88;0.88;;;;;;;6.80;100.00;99404.31;5097283;28;20103;-73
2023/12/15 03:22:34;;;;;;;1.52;1.40;;;;;;;6.82;100.00;99410.38;5097283;28;20069;-73
2023/12/15 03:24:59;;;;;;;1.30;1.17;;;;;;;6.87;100.00;99404.69;5097660;28;20492;-73
2023/12/15 03:27:25;;;;;;;2.25;1.45;;;;;;;6.72;100.00;99416.16;5101105;28;20081;-73
2023/12/15 03:29:50;;;;;;;1.92;1.63;;;;;;;6.81;100.00;99417.06;5078919;28;20027;-73
2023/12/15 03:32:16;;;;;;;2.92;2.00;;;;;;;6.68;100.00;99418.72;5096885;28;20054;-73
2023/12/15 03:34:41;;;;;;;2.95;2.25;;;;;;;6.71;100.00;99423.69;5078878;28;20063;-73
2023/12/15 03:37:08;;;;;;;3.72;2.00;;;;;;;6.74;100.00;99436.13;5095672;28;20028;-74
2023/12/15 03:39:34;;;;;;;2.22;1.65;;;;;;;6.69;100.00;99433.47;5075284;28;20085;-73
2023/12/15 03:42:05;;;;;;;4.60;1.70;;;;;;;6.56;100.00;99437.88;5090665;28;20020;-73
2023/12/15 03:44:30;;;;;;;2.58;2.10;;;;;;;6.45;100.00;99440.03;5103627;28;20032;-73
2023/12/15 03:46:56;;;;;;;3.28;2.45;;;;;;;6.41;100.00;99425.13;5093065;28;20059;-73
2023/12/15 03:49:21;;;;;;;4.30;2.72;;;;;;;6.42;100.00;99437.88;5093992;28;20024;-73
2023/12/15 03:51:47;;;;;;;3.20;2.20;;;;;;;6.37;100.00;99440.75;5112455;28;20024;-73
2023/12/15 03:54:12;;;;;;;3.60;2.40;;;;;;;6.33;100.00;99451.66;5102270;28;20466;-74
2023/12/15 03:56:38;;;;;;;5.82;4.55;;;;;;;6.30;100.00;99436.44;5093357;28;20024;-74
2023/12/15 03:59:03;;;;;;;5.75;4.15;;;;;;;6.37;100.00;99440.75;5094887;28;20066;-73
2023/12/15 04:01:29;;;;;;;4.18;2.80;;;;;;;6.38;100.00;99453.50;5094021;28;20019;-73
2023/12/15 04:03:57;;;;;;;4.70;2.80;;;;;;;6.34;100.00;99452.50;5113706;28;20097;-73
2023/12/15 04:06:22;;;;;;;4.22;3.55;;;;;;;6.27;100.00;99452.88;5094622;28;20028;-73
2023/12/15 04:08:48;;;;;;;5.75;4.55;;;;;;;6.40;100.00;99459.59;5113918;28;20020;-81
2023/12/15 04:11:16;;;;;;;7.15;4.25;;;;;;;6.43;100.00;99464.53;5113070;28;20019;-81
2023/12/15 04:13:42;;;;;;;5.75;3.00;;;;;;;6.52;100.00;99476.59;5111795;28;20073;-81
2023/12/15 04:16:07;;;;;;;4.45;3.40;;;;;;;6.43;100.00;99468.13;5095291;28;20027;-81
2023/12/15 04:18:33;;;;;;;6.05;4.10;;;;;;;6.50;100.00;99472.47;5093621;28;20030;-81
2023/12/15 04:21:00;;;;;;;5.78;3.67;;;;;;;6.50;100.00;99473.28;5084400;28;20433;-81
2023/12/15 04:23:26;;;;;;;5.75;3.33;;;;;;;6.60;100.00;99477.84;5088731;28;20556;-81
2023/12/15 04:25:51;;;;;;;6.18;3.45;;;;;;;6.56;100.00;99477.63;5091827;28;20030;-81
2023/12/15 04:28:17;;;;;;;7.03;3.65;;;;;;;6.60;100.00;99475.06;5092961;28;20036;-81
2023/12/15 04:30:42;;;;;;;6.57;3.38;;;;;;;6.58;100.00;99480.91;5074869;28;20020;-81
2023/12/15 04:33:08;;;;;;;7.18;5.07;;;;;;;6.49;100.00;99481.94;5093110;28;20027;-81
2023/12/15 04:35:34;;;;;;;7.72;5.03;;;;;;;6.30;100.00;99474.50;5092852;28;20024;-81
2023/12/15 04:37:59;;;;;;;8.25;6.60;;;;;;;6.26;100.00;99481.81;5092638;28;20093;-81
2023/12/15 04:40:25;;;;;;;11.55;7.03;;;;;;;6.25;100.00;99500.41;5074517;28;20561;-81
2023/12/15 04:42:50;;;;;;;14.98;9.90;;;;;;;6.26;100.00;99495.69;5102913;28;20051;-80
2023/12/15 04:45:16;;;;;;;14.23;9.10;;;;;;;6.23;100.00;99501.88;5113099;28;20030;-81
2023/12/15 04:47:42;;;;;;;11.65;8.68;;;;;;;6.20;100.00;99508.00;5100873;28;20164;-81
2023/12/15 04:50:08;;;;;;;12.13;8.52;;;;;;;6.05;100.00;99498.81;5078860;28;20024;-81
2023/12/15 04:52:33;;;;;;;6.75;5.50;;;;;;;6.17;100.00;99513.06;5082929;28;20024;-81
2023/12/15 04:54:59;;;;;;;7.65;5.80;;;;;;;6.11;100.00;99491.22;5092571;28;20434;-81
2023/12/15 04:57:24;;;;;;;4.82;3.35;;;;;;;6.23;100.00;99512.97;5092228;28;20531;-80
2023/12/15 04:59:50;;;;;;;5.25;4.13;;;;;;;6.25;100.00;99513.50;5090264;28;20050;-81
2023/12/15 05:02:15;;;;;;;4.88;3.85;;;;;;;6.18;100.00;99517.47;5093054;28;20070;-83
2023/12/15 05:04:41;;;;;;;6.88;3.05;;;;;;;6.18;100.00;99514.69;5104295;28;20036;-79
2023/12/15 05:07:06;;;;;;;4.47;3.75;;;;;;;6.22;100.00;99517.69;5092369;28;20454;-79
2023/12/15 05:09:32;;;;;;;5.72;4.82;;;;;;;6.22;100.00;99528.81;5073992;28;20423;-80
2023/12/15 05:11:57;;;;;;;5.20;4.07;;;;;;;6.17;100.00;99526.13;5096931;28;20412;-81
2023/12/15 05:14:23;;;;;;;4.45;4.05;;;;;;;6.10;100.00;99523.75;5112631;28;20096;-79
2023/12/15 05:16:48;;;;;;;5.38;4.10;;;;;;;6.24;100.00;99532.09;5093850;28;20028;-79
2023/12/15 05:19:13;;;;;;;5.05;4.10;;;;;;;6.18;100.00;99525.00;5113185;28;20027;-79
2023/12/15 05:21:39;;;;;;;3.50;3.20;;;;;;;6.18;100.00;99531.38;5077233;28;20031;-72
2023/12/15 05:24:05;;;;;;;3.92;3.53;;;;;;;6.18;100.00;99542.47;5098480;27;20022;-73
2023/12/15 05:26:30;;;;;;;8.02;5.53;;;;;;;6.19;100.00;99548.88;5109322;28;20102;-75
2023/12/15 05:28:56;;;;;;;6.80;6.10;;;;;;;6.18;100.00;99552.78;5107756;28;20159;-76
2023/12/15 05:31:22;;;;;;;9.55;6.05;;;;;;;6.20;100.00;99547.72;5098261;28;20042;-75
2023/12/15 05:33:47;;;;;;;12.85;9.52;;;;;;;6.31;100.00;99554.75;5092963;28;20020;-75
2023/12/15 05:36:20;;;;;;;11.02;8.48;;;;;;;6.30;100.00;99553.13;5104944;28;20016;-73
2023/12/15 05:38:49;;;;;;;17.75;11.88;;;;;;;6.33;100.00;99540.56;5107650;27;20028;-75
2023/12/15 05:41:14;;;;;;;15.60;11.07;;;;;;;6.32;100.00;99559.19;5108909;28;20299;-73
2023/12/15 05:43:40;;;;;;;16.45;9.82;;;;;;;6.24;100.00;99559.88;5089301;27;20274;-76
2023/12/15 05:46:06;;;;;;;28.60;16.10;;;;;;;6.24;100.00;99559.06;5108198;27;20024;-76
2023/12/15 05:48:32;;;;;;;34.53;18.98;;;;;;;6.33;100.00;99557.22;5106517;28;20035;-75
2023/12/15 05:50:58;;;;;;;15.77;9.95;;;;;;;6.14;100.00;99554.50;5088219;28;20499;-73
2023/12/15 05:53:23;;;;;;;12.23;8.75;;;;;;;6.24;100.00;99565.44;5108222;28;20031;-73
2023/12/15 05:55:49;;;;;;;14.48;9.90;;;;;;;6.38;100.00;99567.44;5086850;27;20031;-74
2023/12/15 05:58:14;;;;;;;12.38;9.23;;;;;;;6.31;100.00;99568.66;5080996;28;20560;-73
2023/12/15 06:00:40;;;;;;;14.98;10.40;;;;;;;6.34;100.00;99558.06;5098297;28;20020;-73
2023/12/15 06:03:05;;;;;;;8.48;6.50;;;;;;;6.41;100.00;99575.19;5100239;28;20027;-73
2023/12/15 06:05:34;;;;;;;12.10;8.15;;;;;;;6.50;100.00;99578.88;5082696;28;20101;-76
2023/12/15 06:08:01;;;;;;;17.30;8.73;;;;;;;6.52;100.00;99575.81;5097237;28;20024;-76
2023/12/15 06:10:26;;;;;;;11.02;7.35;;;;;;;6.62;100.00;99577.56;5111508;28;20019;-74
2023/12/15 06:12:52;;;;;;;16.30;8.88;;;;;;;6.69;100.00;99572.44;5090490;28;20556;-74
2023/12/15 06:15:17;;;;;;;26.95;15.95;;;;;;;6.66;100.00;99575.84;5111801;28;20031;-76
2023/12/15 06:17:43;;;;;;;31.60;17.08;;;;;;;6.71;100.00;99581.28;5102168;28;20087;-75
2023/12/15 06:20:10;;;;;;;19.27;12.20;;;;;;;6.73;100.00;99585.44;5094518;28;20020;-75
2023/12/15 06:22:36;;;;;;;18.48;11.65;;;;;;;6.64;100.00;99587.25;5096494;28;20019;-78
2023/12/15 06:25:01;;;;;;;19.00;12.15;;;;;;;6.64;100.00;99589.22;5090601;28;20028;-76
2023/12/15 06:27:26;;;;;;;13.95;9.07;;;;;;;6.66;100.00;99609.19;5110163;28;20114;-69
2023/12/15 06:29:52;;;;;;;14.43;8.10;;;;;;;6.78;100.00;99612.31;5097567;28;20058;-70
2023/12/15 06:32:17;;;;;;;10.45;8.45;;;;;;;6.81;100.00;99595.00;5081050;28;20081;-70
2023/12/15 06:34:43;;;;;;;16.80;9.57;;;;;;;6.92;100.00;99617.06;5080887;28;20023;-70
2023/12/15 06:37:08;;;;;;;21.50;14.07;;;;;;;6.94;100.00;99609.25;5078822;28;20035;-70
2023/12/15 06:39:34;;;;;;;23.73;13.68;;;;;;;6.78;100.00;99603.13;5107982;28;20088;-70
2023/12/15 06:42:02;;;;;;;18.98;11.50;;;;;;;6.76;100.00;99620.13;5102088;28;20036;-71
2023/12/15 06:44:28;;;;;;;20.58;13.40;;;;;;;6.90;100.00;99622.13;5090894;28;20027;-74
2023/12/15 06:46:53;;;;;;;27.52;16.10;;;;;;;6.91;100.00;99632.09;5106609;28;20023;-72
2023/12/15 06:49:19;;;;;;;33.92;19.05;;;;;;;6.93;100.00;99630.66;5093367;28;20117;-72
2023/12/15 06:51:46;;;;;;;28.73;19.63;;;;;;;6.97;100.00;99630.88;5070063;28;20028;-73
2023/12/15 06:54:11;;;;;;;22.25;13.60;;;;;;;7.01;100.00;99640.25;5088283;28;20563;-74
2023/12/15 06:56:38;;;;;;;31.35;18.30;;;;;;;6.89;100.00;99640.75;5077128;28;20023;-75
2023/12/15 06:59:04;;;;;;;29.38;17.92;;;;;;;6.87;100.00;99652.16;5085057;28;20122;-73
2023/12/15 07:01:30;;;;;;;26.95;14.73;;;;;;;6.87;100.00;99641.03;5108468;28;20094;-73
2023/12/15 07:03:55;;;;;;;29.77;17.88;;;;;;;6.97;100.00;99667.03;5092325;28;20161;-73
2023/12/15 07:06:21;;;;;;;28.50;16.27;;;;;;;6.59;100.00;99659.63;5109000;28;20408;-71
2023/12/15 07:08:54;;;;;;;22.92;15.52;;;;;;;6.49;100.00;99659.78;5107724;28;20032;-70
2023/12/15 07:11:20;;;;;;;20.02;13.10;;;;;;;6.37;100.00;99668.56;5092358;28;20489;-76
2023/12/15 07:13:49;;;;;;;23.20;14.65;;;;;;;6.29;100.00;99659.81;5107093;28;20023;-75
2023/12/15 07:16:15;;;;;;;22.17;13.75;;;;;;;6.22;100.00;99669.66;5097030;28;20035;-73
2023/12/15 07:18:41;;;;;;;18.98;12.32;;;;;;;6.24;100.00;99670.19;5096722;28;20039;-75
2023/12/15 07:21:07;;;;;;;24.75;14.32;;;;;;;6.13;100.00;99666.72;5094317;28;20164;-71
2023/12/15 07:23:33;;;;;;;19.10;12.73;;;;;;;6.13;100.00;99663.94;5095946;28;20054;-71
2023/12/15 07:26:00;;;;;;;12.70;8.88;;;;;;;6.14;100.00;99671.97;5097161;28;20059;-76
2023/12/15 07:28:25;;;;;;;14.18;8.93;;;;;;;6.17;100.00;99684.44;5096334;28;20031;-75
2023/12/15 07:30:51;;;;;;;15.60;9.40;;;;;;;6.19;100.00;99687.75;5095831;28;20109;-75
2023/12/15 07:33:16;;;;;;;16.67;11.10;;;;;;;6.09;100.00;99688.69;5115092;28;20023;-75
2023/12/15 07:35:42;;;;;;;21.23;12.00;;;;;;;6.11;100.00;99699.53;5091598;28;20076;-75
2023/12/15 07:38:09;;;;;;;21.30;13.50;;;;;;;6.08;100.00;99711.22;5084308;28;20484;-74
2023/12/15 07:40:34;;;;;;;22.90;14.43;;;;;;;6.11;100.00;99693.97;5112139;28;20175;-75
2023/12/15 07:43:00;;;;;;;28.38;14.50;;;;;;;6.15;100.00;99703.34;5112072;28;20031;-72
2023/12/15 07:45:25;;;;;;;24.17;13.73;;;;;;;6.04;100.00;99717.41;5106938;28;20118;-74
2023/12/15 07:47:52;;;;;;;27.38;14.80;;;;;;;6.00;100.00;99719.06;5103352;27;20062;-74
2023/12/15 07:50:18;;;;;;;23.98;14.50;;;;;;;6.09;100.00;99718.44;5110120;27;20058;-76
2023/12/15 07:52:43;;;;;;;18.83;11.27;;;;;;;6.04;100.00;99717.41;5091676;28;20024;-76
2023/12/15 07:55:09;;;;;;;21.13;11.07;;;;;;;6.00;100.00;99724.63;5099734;28;20031;-76
2023/12/15 07:57:34;;;;;;;17.20;11.23;;;;;;;6.01;100.00;99737.41;5091396;28;20419;-76
2023/12/15 08:00:00;;;;;;;28.40;14.80;;;;;;;5.98;100.00;99751.88;5111292;27;20411;-74
2023/12/15 08:02:25;;;;;;;19.27;12.23;;;;;;;5.94;100.00;99748.03;5085367;28;20113;-76
2023/12/15 08:04:51;;;;;;;19.52;12.93;;;;;;;5.96;100.00;99747.72;5102647;28;20055;-76
2023/12/15 08:07:16;;;;;;;17.58;11.65;;;;;;;5.94;100.00;99766.63;5098479;28;20019;-74
2023/12/15 08:09:42;;;;;;;23.48;13.77;;;;;;;5.92;100.00;99775.28;5090381;28;20023;-77
2023/12/15 08:12:08;;;;;;;17.05;11.68;;;;;;;5.89;100.00;99768.38;5092203;28;20035;-76
2023/12/15 08:14:33;;;;;;;18.90;10.80;;;;;;;5.85;100.00;99772.03;5092808;28;20024;-75
2023/12/15 08:16:59;;;;;;;16.65;10.00;;;;;;;5.85;100.00;99774.81;5093023;28;20124;-75
2023/12/15 08:19:24;;;;;;;17.67;10.32;;;;;;;5.84;100.00;99776.72;5111944;28;20031;-75
2023/12/15 08:21:51;;;;;;;18.83;10.40;;;;;;;5.81;100.00;99784.84;5102699;28;20032;-75
2023/12/15 08:24:17;;;;;;;32.40;16.10;;;;;;;5.78;100.00;99797.38;5109331;28;20020;-77
2023/12/15 08:26:42;;;;;;;31.77;16.33;;;;;;;5.68;100.00;99792.75;5094744;28;20169;-79
2023/12/15 08:29:08;;;;;;;31.88;16.30;;;;;;;5.76;100.00;99800.44;5094413;28;20097;-76
2023/12/15 08:31:33;;;;;;;27.40;13.95;;;;;;;5.71;100.00;99803.28;5092378;28;20027;-78
2023/12/15 08:33:59;;;;;;;19.73;12.45;;;;;;;5.70;100.00;99801.63;5084166;28;20031;-74
2023/12/15 08:36:27;;;;;;;15.43;10.40;;;;;;;5.68;100.00;99831.63;5088814;28;20015;-75
2023/12/15 08:38:53;;;;;;;23.25;13.45;;;;;;;5.59;100.00;99819.50;5103299;28;20038;-75
2023/12/15 08:41:19;;;;;;;15.90;10.77;;;;;;;5.57;100.00;99819.78;5102370;28;20501;-75
2023/12/15 08:43:44;;;;;;;19.77;13.75;;;;;;;5.63;100.00;99837.22;5080401;28;20020;-74
2023/12/15 08:46:10;;;;;;;30.17;17.00;;;;;;;5.59;100.00;99838.91;5088982;28;20019;-74
2023/12/15 08:48:35;;;;;;;41.78;21.10;;;;;;;5.64;100.00;99838.03;5103519;27;20023;-74
2023/12/15 08:51:01;;;;;;;32.40;18.38;;;;;;;5.58;100.00;99842.81;5101657;27;20054;-73
2023/12/15 08:53:26;;;;;;;41.33;22.52;;;;;;;5.60;100.00;99860.00;5087987;28;20039;-73
2023/12/15 08:55:52;;;;;;;43.47;23.02;;;;;;;5.66;100.00;99853.25;5104016;27;20046;-73
2023/12/15 08:58:20;;;;;;;27.52;14.93;;;;;;;5.62;100.00;99860.53;5101559;27;20024;-74
2023/12/15 09:00:45;;;;;;;41.08;22.58;;;;;;;5.72;100.00;99862.38;5081692;28;20054;-73
2023/12/15 09:03:11;;;;;;;28.33;13.82;;;;;;;5.68;100.00;99864.94;5109402;28;20492;-73
2023/12/15 09:05:36;;;;;;;38.85;20.38;;;;;;;5.74;100.00;99863.75;5101596;28;20024;-73
2023/12/15 09:08:02;;;;;;;31.60;15.48;;;;;;;5.65;100.00;99859.94;5085232;28;20097;-74
2023/12/15 09:10:41;;;;;;;27.02;13.43;;;;;;;5.72;100.00;99879.88;5093662;28;20018;-73
2023/12/15 09:13:06;;;;;;;28.50;13.98;;;;;;;5.75;100.00;99873.72;5088670;27;20015;-73
2023/12/15 09:15:32;;;;;;;25.13;13.75;;;;;;;5.74;100.00;99868.47;5103818;27;20062;-74
2023/12/15 09:17:57;;;;;;;40.10;18.60;;;;;;;5.68;100.00;99867.69;5094048;28;20050;-74
2023/12/15 09:20:24;;;;;;;37.85;20.60;;;;;;;5.71;100.00;99864.34;5079502;28;20101;-73
2023/12/15 09:22:50;;;;;;;17.83;11.35;;;;;;;5.70;100.00;99868.22;5108499;27;20035;-73
2023/12/15 09:25:15;;;;;;;23.33;12.07;;;;;;;5.74;100.00;99866.53;5087286;28;20027;-73
2023/12/15 09:27:41;;;;;;;27.45;12.50;;;;;;;5.81;100.00;99873.69;5107942;27;20140;-73
2023/12/15 09:30:06;;;;;;;22.20;11.23;;;;;;;5.64;100.00;99863.03;5106346;27;20027;-72
2023/12/15 09:32:32;;;;;;;22.02;11.77;;;;;;;5.62;100.00;99878.03;5111970;28;20024;-75
2023/12/15 09:34:58;;;;;;;23.77;12.80;;;;;;;5.75;100.00;99884.81;5093718;28;20428;-74
2023/12/15 09:37:24;;;;;;;13.68;7.63;;;;;;;5.73;100.00;99878.75;5111536;28;20050;-75
2023/12/15 09:39:53;;;;;;;10.68;7.25;;;;;;;5.68;100.00;99876.03;5107110;28;20027;-72
2023/12/15 09:42:19;;;;;;;14.10;9.63;;;;;;;5.73;100.00;99878.75;5111706;27;20106;-71
2023/12/15 09:44:44;;;;;;;20.98;12.93;;;;;;;5.65;100.00;99882.13;5100073;28;20110;-72
2023/12/15 09:47:12;;;;;;;16.40;10.90;;;;;;;5.69;100.00;99882.38;5085473;28;20057;-69
2023/12/15 09:49:39;;;;;;;15.10;8.65;;;;;;;5.70;100.00;99886.81;5078267;28;20830;-71
2023/12/15 09:52:07;;;;;;;19.83;9.70;;;;;;;5.66;100.00;99875.47;5088301;28;20110;-70
2023/12/15 09:54:34;;;;;;;15.27;7.95;;;;;;;5.74;100.00;99880.41;5100343;28;20028;-72
2023/12/15 09:57:00;;;;;;;10.25;6.78;;;;;;;5.78;100.00;99886.19;5111276;28;20030;-71
2023/12/15 09:59:26;;;;;;;12.80;7.45;;;;;;;5.77;100.00;99884.53;5113372;28;20031;-72
2023/12/15 10:01:51;;;;;;;12.65;7.30;;;;;;;5.76;100.00;99896.78;5089557;28;20047;-74
2023/12/15 10:04:17;;;;;;;13.40;7.05;;;;;;;5.54;100.00;99886.13;5093709;28;20047;-76
2023/12/15 10:06:43;;;;;;;13.65;8.13;;;;;;;5.52;100.00;99891.16;5096745;28;20495;-74
2023/12/15 10:09:12;;;;;;;17.42;7.88;;;;;;;5.51;100.00;99889.50;5075541;28;20035;-73
2023/12/15 10:11:39;;;;;;;15.25;8.70;;;;;;;5.44;100.00;99895.38;5088632;28;20028;-72
2023/12/15 10:14:07;;;;;;;25.23;10.75;;;;;;;5.47;100.00;99892.84;5105684;28;20495;-77
2023/12/15 10:16:34;;;;;;;16.15;8.32;;;;;;;5.52;100.00;99891.16;5088066;28;20260;-76
2023/12/15 10:19:02;;;;;;;14.18;7.43;;;;;;;5.55;100.00;99901.66;5087914;28;20059;-74
2023/12/15 10:21:30;;;;;;;16.33;10.77;;;;;;;5.60;100.00;99921.06;5107062;28;20032;-75
2023/12/15 10:23:56;;;;;;;11.27;7.68;;;;;;;5.53;100.00;99912.22;5102438;28;20062;-75
2023/12/15 10:26:22;;;;;;;10.85;7.07;;;;;;;5.46;100.00;99901.47;5108347;28;20062;-74
2023/12/15 10:28:47;;;;;;;13.15;8.13;;;;;;;5.48;100.00;99902.84;5097665;28;20032;-75
2023/12/15 10:31:13;;;;;;;15.55;8.55;;;;;;;5.64;100.00;99918.53;5094404;28;20036;-75
2023/12/15 10:33:40;;;;;;;17.23;8.05;;;;;;;5.58;100.00;99929.66;5091625;28;20020;-75
2023/12/15 10:36:07;;;;;;;11.73;6.18;;;;;;;5.22;100.00;99918.03;5094601;28;20091;-77
2023/12/15 10:38:32;;;;;;;13.13;7.82;;;;;;;5.04;100.00;99912.03;5088858;28;20028;-74
2023/12/15 10:40:59;;;;;;;16.90;8.55;;;;;;;5.03;100.00;99924.22;5084403;28;20516;-74
2023/12/15 10:43:26;;;;;;;20.08;10.77;;;;;;;5.02;100.00;99933.66;5107731;28;20024;-73
2023/12/15 10:45:54;;;;;;;18.10;9.65;;;;;;;4.98;100.00;99938.13;5089932;28;20046;-73
2023/12/15 10:48:20;;;;;;;20.15;10.80;;;;;;;5.08;100.00;99945.56;5092302;28;20118;-75
2023/12/15 10:50:46;;;;;;;21.48;10.63;;;;;;;4.98;100.00;99938.13;5106814;28;20038;-73
2023/12/15 10:53:15;;;;;;;22.73;9.63;;;;;;;4.99;100.00;99943.38;5094327;28;20024;-74
2023/12/15 10:55:43;;;;;;;25.85;10.95;;;;;;;4.96;100.00;99943.16;5092815;28;20422;-73
2023/12/15 10:58:10;;;;;;;17.08;7.15;;;;;;;5.01;100.00;99949.50;5091727;28;20031;-74
2023/12/15 11:00:36;;;;;;;22.73;9.57;;;;;;;4.92;100.00;99968.66;5089676;28;20138;-74
2023/12/15 11:03:04;;;;;;;12.07;7.55;;;;;;;4.89;100.00;99951.78;5111482;28;20494;-74
2023/12/15 11:05:32;;;;;;;14.35;7.85;;;;;;;4.96;100.00;99952.28;5102359;28;20044;-74
2023/12/15 11:07:59;;;;;;;19.35;8.18;;;;;;;4.86;100.00;99946.78;5089951;28;20494;-74
2023/12/15 11:10:25;;;;;;;19.90;11.68;;;;;;;4.81;100.00;99947.63;5106862;28;20085;-75
2023/12/15 11:12:52;;;;;;;22.27;12.60;;;;;;;4.86;100.00;99957.88;5077801;28;20114;-74
2023/12/15 11:15:19;;;;;;;22.08;11.48;;;;;;;5.00;100.00;99961.66;5111235;28;20104;-74
2023/12/15 11:17:55;;;;;;;22.45;12.63;;;;;;;4.85;100.00;99970.06;5093404;28;20107;-75
2023/12/15 11:20:20;;;;;;;24.77;11.98;;;;;;;4.85;100.00;99970.91;5102101;28;20035;-74